createdAt,value
2018-08-22T00:00:10.990Z,95200.69
2018-08-22T00:02:40.831Z,95206.34
2018-08-22T00:05:10.062Z,95199.43
2018-08-22T00:07:38.852Z,95197.02
2018-08-22T00:10:09.125Z,95205.36
2018-08-22T00:12:38.683Z,95202.35
2018-08-22T00:15:07.515Z,95199.84
2018-08-22T00:17:37.218Z,95197.56
2018-08-22T00:20:06.600Z,95198.83
2018-08-22T00:22:35.418Z,95200.34
2018-08-22T00:25:04.598Z,95195.05
2018-08-22T00:27:33.583Z,95196.56
2018-08-22T00:30:02.676Z,95192.52
2018-08-22T00:32:31.602Z,95196.53
2018-08-22T00:35:00.469Z,95199.44
2018-08-22T00:37:29.339Z,95208.94
2018-08-22T00:39:58.674Z,95201.13
2018-08-22T00:42:29.462Z,95203.12
2018-08-22T00:44:59.073Z,95202.13
2018-08-22T00:47:29.199Z,95210.20
2018-08-22T00:49:58.806Z,95206.56
2018-08-22T00:52:28.962Z,95207.56
2018-08-22T00:54:58.222Z,95208.84
2018-08-22T00:57:27.354Z,95212.25
2018-08-22T00:59:56.349Z,95206.63
2018-08-22T01:02:26.634Z,95210.52
2018-08-22T01:04:56.095Z,95207.52
2018-08-22T01:07:25.050Z,95211.67
2018-08-22T01:09:54.218Z,95207.52
2018-08-22T01:12:23.455Z,95215.58
2018-08-22T01:14:52.454Z,95219.48
2018-08-22T01:17:22.246Z,95220.02
2018-08-22T01:19:51.788Z,95219.75
2018-08-22T01:22:21.502Z,95221.78
2018-08-22T01:24:51.122Z,95212.69
2018-08-22T01:27:23.227Z,95215.61
2018-08-22T01:29:54.246Z,95223.17
2018-08-22T01:32:23.624Z,95216.88
2018-08-22T01:34:53.119Z,95215.73
2018-08-22T01:37:22.058Z,95222.55
2018-08-22T01:39:50.914Z,95218.26
2018-08-22T01:42:20.009Z,95220.78
2018-08-22T01:44:49.521Z,95212.94
2018-08-22T01:47:18.498Z,95212.94
2018-08-22T01:49:48.219Z,95209.17
2018-08-22T01:52:18.746Z,95210.16
2018-08-22T01:54:48.548Z,95214.95
2018-08-22T01:57:17.343Z,95209.55
2018-08-22T01:59:46.785Z,95215.23
2018-08-22T02:02:15.876Z,95222.16
2018-08-22T02:04:44.629Z,95224.43
2018-08-22T02:07:14.267Z,95231.52
2018-08-22T02:09:43.360Z,95220.78
2018-08-22T02:12:12.353Z,95224.82
2018-08-22T02:14:41.475Z,95226.96
2018-08-22T02:17:11.098Z,95227.09
2018-08-22T02:19:40.560Z,95224.95
2018-08-22T02:22:09.874Z,95228.23
2018-08-22T02:24:38.727Z,95226.45
2018-08-22T02:27:07.665Z,95225.33
2018-08-22T02:29:36.867Z,95222.30
2018-08-22T02:32:06.250Z,95224.06
2018-08-22T02:34:35.853Z,95224.44
2018-08-22T02:37:05.135Z,95227.98
2018-08-22T02:39:33.946Z,95228.88
2018-08-22T02:42:02.713Z,95227.98
2018-08-22T02:44:31.995Z,95225.33
2018-08-22T02:47:01.035Z,95227.73
2018-08-22T02:49:29.811Z,95225.45
2018-08-22T02:51:59.005Z,95224.17
2018-08-22T02:54:28.051Z,95222.79
2018-08-22T02:56:57.124Z,95217.00
2018-08-22T02:59:26.503Z,95227.56
2018-08-22T03:01:55.382Z,95232.47
2018-08-22T03:04:24.198Z,95234.48
2018-08-22T03:06:53.015Z,95232.58
2018-08-22T03:09:21.887Z,95242.30
2018-08-22T03:11:51.318Z,95242.03
2018-08-22T03:14:20.418Z,95246.30
2018-08-22T03:16:49.675Z,95244.13
2018-08-22T03:19:18.686Z,95240.97
2018-08-22T03:21:48.543Z,95247.28
2018-08-22T03:24:17.647Z,95243.36
2018-08-22T03:26:47.313Z,95243.34
2018-08-22T03:29:17.067Z,95247.77
2018-08-22T03:31:45.805Z,95249.61
2018-08-22T03:34:14.695Z,95253.52
2018-08-22T03:36:43.715Z,95251.75
2018-08-22T03:39:12.580Z,95259.07
2018-08-22T03:41:42.192Z,95260.95
2018-08-22T03:44:11.662Z,95263.89
2018-08-22T03:46:40.659Z,95263.92
2018-08-22T03:49:09.701Z,95268.61
2018-08-22T03:51:39.238Z,95268.74
2018-08-22T03:54:08.798Z,95272.80
2018-08-22T03:56:37.710Z,95271.70
2018-08-22T03:59:07.128Z,95266.95
2018-08-22T04:01:36.302Z,95269.90
2018-08-22T04:04:05.596Z,95272.02
2018-08-22T04:06:35.025Z,95273.66
2018-08-22T04:09:04.834Z,95277.49
2018-08-22T04:11:34.214Z,95279.16
2018-08-22T04:14:03.658Z,95283.87
2018-08-22T04:16:32.470Z,95286.80
2018-08-22T04:19:01.375Z,95292.52
2018-08-22T04:21:30.611Z,95290.44
2018-08-22T04:23:59.205Z,95301.92
2018-08-22T04:26:27.883Z,95307.63
2018-08-22T04:28:56.995Z,95303.86
2018-08-22T04:31:26.438Z,95308.08
2018-08-22T04:33:55.374Z,95311.75
2018-08-22T04:36:24.595Z,95309.67
2018-08-22T04:38:54.070Z,95308.06
2018-08-22T04:41:22.867Z,95301.52
2018-08-22T04:43:51.982Z,95303.65
2018-08-22T04:46:20.652Z,95306.67
2018-08-22T04:48:49.478Z,95304.48
2018-08-22T04:51:18.337Z,95303.85
2018-08-22T04:53:47.527Z,95310.62
2018-08-22T04:56:16.534Z,95315.50
2018-08-22T04:58:46.148Z,95311.50
2018-08-22T05:01:15.599Z,95314.73
2018-08-22T05:03:44.611Z,95319.27
2018-08-22T05:06:13.857Z,95319.48
2018-08-22T05:08:42.733Z,95313.31
2018-08-22T05:11:11.696Z,95308.07
2018-08-22T05:13:41.355Z,95308.30
2018-08-22T05:16:10.421Z,95304.58
2018-08-22T05:18:39.232Z,95304.30
2018-08-22T05:21:08.746Z,95305.61
2018-08-22T05:23:38.439Z,95301.43
2018-08-22T05:26:07.543Z,95297.41
2018-08-22T05:28:36.862Z,95306.05
2018-08-22T05:31:05.858Z,95307.45
2018-08-22T05:33:35.088Z,95302.14
2018-08-22T05:36:04.279Z,95306.63
2018-08-22T05:38:33.153Z,95311.75
2018-08-22T05:41:01.983Z,95316.13
2018-08-22T05:43:31.919Z,95314.97
2018-08-22T05:46:01.211Z,95314.95
2018-08-22T05:48:30.515Z,95316.70
2018-08-22T05:50:59.881Z,95319.61
2018-08-22T05:53:28.910Z,95311.81
2018-08-22T05:55:58.035Z,95315.68
2018-08-22T05:58:27.408Z,95315.08
2018-08-22T06:00:56.438Z,95312.97
2018-08-22T06:03:25.515Z,95310.75
2018-08-22T06:05:54.829Z,95311.05
2018-08-22T06:08:24.196Z,95309.95
2018-08-22T06:10:53.275Z,95312.73
2018-08-22T06:13:22.831Z,95313.10
2018-08-22T06:15:51.795Z,95314.30
2018-08-22T06:18:20.619Z,95316.78
2018-08-22T06:20:49.531Z,95319.71
2018-08-22T06:23:18.288Z,95316.86
2018-08-22T06:25:47.379Z,95320.51
2018-08-22T06:28:16.803Z,95317.92
2018-08-22T06:30:46.005Z,95318.64
2018-08-22T06:33:15.531Z,95316.19
2018-08-22T06:35:44.947Z,95314.50
2018-08-22T06:38:14.083Z,95321.62
2018-08-22T06:40:42.967Z,95316.96
2018-08-22T06:43:12.496Z,95326.91
2018-08-22T06:45:41.473Z,95326.03
2018-08-22T06:48:11.304Z,95321.77
2018-08-22T06:50:40.912Z,95309.48
2018-08-22T06:53:10.072Z,95317.31
2018-08-22T06:55:39.491Z,95318.52
2018-08-22T06:58:08.415Z,95322.39
2018-08-22T07:00:37.591Z,95321.56
2018-08-22T07:03:06.795Z,95322.73
2018-08-22T07:05:35.999Z,95320.08
2018-08-22T07:08:05.411Z,95332.33
2018-08-22T07:10:34.280Z,95325.58
2018-08-22T07:13:04.010Z,95319.63
2018-08-22T07:15:34.381Z,95323.38
2018-08-22T07:18:03.615Z,95320.36
2018-08-22T07:20:32.664Z,95319.95
2018-08-22T07:23:01.772Z,95311.86
2018-08-22T07:25:30.822Z,95312.97
2018-08-22T07:28:00.681Z,95312.55
2018-08-22T07:30:29.629Z,95313.53
2018-08-22T07:32:58.698Z,95315.69
2018-08-22T07:35:28.573Z,95315.74
2018-08-22T07:37:57.737Z,95316.91
2018-08-22T07:40:26.818Z,95320.96
2018-08-22T07:42:55.719Z,95314.72
2018-08-22T07:45:24.718Z,95314.72
2018-08-22T07:47:54.848Z,95309.02
2018-08-22T07:50:24.108Z,95316.55
2018-08-22T07:52:58.304Z,95312.91
2018-08-22T07:55:28.284Z,95312.87
2018-08-22T07:57:57.367Z,95312.47
2018-08-22T08:00:26.412Z,95309.06
2018-08-22T08:02:55.878Z,95308.77
2018-08-22T08:05:26.229Z,95306.48
2018-08-22T08:07:56.022Z,95306.01
2018-08-22T08:10:30.264Z,95299.02
2018-08-22T08:12:59.341Z,95303.44
2018-08-22T08:15:28.741Z,95293.36
2018-08-22T08:17:58.578Z,95300.25
2018-08-22T08:20:27.695Z,95299.95
2018-08-22T08:22:56.550Z,95292.38
2018-08-22T08:25:25.846Z,95305.17
2018-08-22T08:27:55.547Z,95293.60
2018-08-22T08:30:24.544Z,95299.67
2018-08-22T08:32:54.452Z,95302.33
2018-08-22T08:35:23.528Z,95299.95
2018-08-22T08:37:53.047Z,95291.75
2018-08-22T08:40:22.392Z,95291.15
2018-08-22T08:42:51.488Z,95294.89
2018-08-22T08:45:20.499Z,95288.88
2018-08-22T08:47:50.323Z,95281.86
2018-08-22T08:50:19.362Z,95281.53
2018-08-22T08:52:49.479Z,95286.69
2018-08-22T08:55:19.096Z,95281.49
2018-08-22T08:57:47.783Z,95283.32
2018-08-22T09:00:17.009Z,95276.92
2018-08-22T09:02:47.020Z,95280.58
2018-08-22T09:05:15.983Z,95284.33
2018-08-22T09:07:44.632Z,95278.81
2018-08-22T09:10:14.211Z,95279.42
2018-08-22T09:12:43.391Z,95272.79
2018-08-22T09:15:12.479Z,95266.89
2018-08-22T09:17:42.344Z,95265.21
2018-08-22T09:20:11.694Z,95265.70
2018-08-22T09:22:40.665Z,95265.36
2018-08-22T09:25:10.322Z,95264.56
2018-08-22T09:27:39.387Z,95257.22
2018-08-22T09:30:08.336Z,95257.75
2018-08-22T09:32:37.527Z,95250.13
2018-08-22T09:35:07.501Z,95256.79
2018-08-22T09:37:36.707Z,95243.00
2018-08-22T09:40:06.341Z,95253.34
2018-08-22T09:42:36.026Z,95244.98
2018-08-22T09:45:05.231Z,95233.22
2018-08-22T09:47:34.327Z,95225.62
2018-08-22T09:50:03.509Z,95232.16
2018-08-22T09:52:32.497Z,95236.59
2018-08-22T09:55:02.895Z,95222.33
2018-08-22T09:57:32.320Z,95231.40
2018-08-22T10:00:01.461Z,95230.98
2018-08-22T10:02:31.369Z,95233.91
2018-08-22T10:05:00.701Z,95222.63
2018-08-22T10:07:29.566Z,95220.84
2018-08-22T10:09:59.131Z,95208.30
2018-08-22T10:12:28.060Z,95215.90
2018-08-22T10:14:57.042Z,95219.53
2018-08-22T10:17:26.687Z,95211.37
2018-08-22T10:19:55.559Z,95209.78
2018-08-22T10:22:24.771Z,95203.16
2018-08-22T10:24:54.583Z,95207.25
2018-08-22T10:27:23.638Z,95193.90
2018-08-22T10:29:52.651Z,95207.86
2018-08-22T10:32:21.879Z,95201.38
2018-08-22T10:34:50.839Z,95201.23
2018-08-22T10:37:20.143Z,95203.53
2018-08-22T10:39:49.594Z,95195.40
2018-08-22T10:42:19.535Z,95191.91
2018-08-22T10:44:49.679Z,95197.42
2018-08-22T10:47:18.971Z,95190.00
2018-08-22T10:49:47.894Z,95190.11
2018-08-22T10:52:17.184Z,95188.44
2018-08-22T10:54:46.758Z,95181.34
2018-08-22T10:57:15.667Z,95188.17
2018-08-22T10:59:44.463Z,95189.59
2018-08-22T11:02:14.175Z,95173.38
2018-08-22T11:04:44.619Z,95186.61
2018-08-22T11:07:14.448Z,95179.03
2018-08-22T11:09:44.006Z,95169.80
2018-08-22T11:12:13.256Z,95171.39
2018-08-22T11:14:42.754Z,95158.30
2018-08-22T11:17:11.729Z,95166.89
2018-08-22T11:19:40.932Z,95162.07
2018-08-22T11:22:20.990Z,95170.05
2018-08-22T11:25:00.699Z,95158.30
2018-08-22T11:27:40.897Z,95164.41
2018-08-22T11:30:20.643Z,95173.11
2018-08-22T11:33:01.508Z,95158.29
2018-08-22T11:35:28.971Z,95159.06
2018-08-22T11:37:58.801Z,95156.13
2018-08-22T11:40:28.206Z,95153.91
2018-08-22T11:42:57.256Z,95159.70
2018-08-22T11:45:26.271Z,95152.41
2018-08-22T11:47:55.482Z,95146.11
2018-08-22T11:50:24.670Z,95148.51
2018-08-22T11:52:54.600Z,95150.84
2018-08-22T11:55:23.637Z,95148.02
2018-08-22T11:57:52.570Z,95151.19
2018-08-22T12:00:21.579Z,95140.98
2018-08-22T12:02:50.668Z,95133.06
2018-08-22T12:05:19.671Z,95141.49
2018-08-22T12:07:48.675Z,95125.06
2018-08-22T12:10:18.083Z,95134.16
2018-08-22T12:12:46.739Z,95140.67
2018-08-22T12:15:16.570Z,95121.39
2018-08-22T12:17:45.982Z,95125.64
2018-08-22T12:20:14.647Z,95117.27
2018-08-22T12:22:43.553Z,95120.42
2018-08-22T12:25:13.007Z,95119.81
2018-08-22T12:27:42.863Z,95128.63
2018-08-22T12:30:12.067Z,95115.17
2018-08-22T12:32:41.622Z,95129.87
2018-08-22T12:35:11.123Z,95117.45
2018-08-22T12:37:40.701Z,95114.45
2018-08-22T12:40:10.675Z,95108.05
2018-08-22T12:42:39.788Z,95115.25
2018-08-22T12:45:09.423Z,95114.31
2018-08-22T12:47:38.713Z,95111.73
2018-08-22T12:50:08.023Z,95101.88
2018-08-22T12:52:37.218Z,95108.98
2018-08-22T12:55:07.128Z,95103.69
2018-08-22T12:57:36.482Z,95101.81
2018-08-22T13:00:05.719Z,95106.25
2018-08-22T13:02:35.249Z,95093.84
2018-08-22T13:05:04.339Z,95098.88
2018-08-22T13:07:33.283Z,95085.81
2018-08-22T13:10:02.758Z,95107.09
2018-08-22T13:12:31.975Z,95092.63
2018-08-22T13:15:01.063Z,95088.58
2018-08-22T13:17:30.615Z,95099.31
2018-08-22T13:20:00.248Z,95087.08
2018-08-22T13:22:29.114Z,95081.38
2018-08-22T13:24:59.014Z,95086.89
2018-08-22T13:27:28.499Z,95089.38
2018-08-22T13:29:58.323Z,95084.22
2018-08-22T13:32:29.216Z,95077.47
2018-08-22T13:34:58.419Z,95078.08
2018-08-22T13:37:30.546Z,95081.77
2018-08-22T13:40:02.610Z,95095.86
2018-08-22T13:42:31.939Z,95085.37
2018-08-22T13:45:01.618Z,95090.02
2018-08-22T13:47:30.305Z,95095.08
2018-08-22T13:49:59.244Z,95077.11
2018-08-22T13:52:28.694Z,95098.47
2018-08-22T13:54:57.824Z,95092.17
2018-08-22T13:57:27.045Z,95089.18
2018-08-22T13:59:56.571Z,95084.94
2018-08-22T14:02:25.750Z,95084.66
2018-08-22T14:04:54.540Z,95090.13
2018-08-22T14:07:23.861Z,95090.73
2018-08-22T14:09:52.527Z,95087.63
2018-08-22T14:12:21.492Z,95073.95
2018-08-22T14:14:50.791Z,95072.83
2018-08-22T14:17:20.279Z,95077.87
2018-08-22T14:19:49.343Z,95081.78
2018-08-22T14:22:18.648Z,95083.11
2018-08-22T14:24:47.839Z,95079.86
2018-08-22T14:27:16.715Z,95071.14
2018-08-22T14:29:46.027Z,95058.84
2018-08-22T14:32:15.288Z,95070.16
2018-08-22T14:34:45.037Z,95055.21
2018-08-22T14:37:14.555Z,95062.58
2018-08-22T14:39:44.238Z,95062.57
2018-08-22T14:42:13.131Z,95047.08
2018-08-22T14:44:42.863Z,95061.11
2018-08-22T14:47:11.736Z,95046.73
2018-08-22T14:49:40.539Z,95044.47
2018-08-22T14:52:09.506Z,95046.09
2018-08-22T14:54:38.634Z,95052.64
2018-08-22T14:57:07.799Z,95050.19
2018-08-22T14:59:36.994Z,95047.73
2018-08-22T15:02:06.143Z,95065.25
2018-08-22T15:04:35.805Z,95058.58
2018-08-22T15:07:05.054Z,95064.72
2018-08-22T15:09:34.127Z,95077.17
2018-08-22T15:12:03.236Z,95064.03
2018-08-22T15:14:32.424Z,95059.77
2018-08-22T15:17:01.435Z,95066.69
2018-08-22T15:19:30.513Z,95056.34
2018-08-22T15:21:59.867Z,95058.33
2018-08-22T15:24:28.922Z,95051.11
2018-08-22T15:26:58.427Z,95050.74
2018-08-22T15:29:27.678Z,95053.41
2018-08-22T15:31:56.596Z,95062.53
2018-08-22T15:34:35.401Z,95055.75
2018-08-22T15:37:04.498Z,95053.43
2018-08-22T15:39:33.638Z,95060.42
2018-08-22T15:42:03.630Z,95052.68
2018-08-22T15:44:32.633Z,95060.30
2018-08-22T15:47:02.360Z,95063.63
2018-08-22T15:49:31.826Z,95065.88
2018-08-22T15:52:00.587Z,95056.73
2018-08-22T15:54:29.933Z,95061.64
2018-08-22T15:56:59.263Z,95055.22
2018-08-22T15:59:28.430Z,95060.96
2018-08-22T16:01:57.634Z,95062.72
2018-08-22T16:04:26.908Z,95072.94
2018-08-22T16:07:03.929Z,95065.72
2018-08-22T16:09:33.863Z,95062.03
2018-08-22T16:12:03.043Z,95063.75
2018-08-22T16:14:33.105Z,95060.27
2018-08-22T16:17:03.751Z,95059.11
2018-08-22T16:19:32.888Z,95071.05
2018-08-22T16:22:01.561Z,95059.70
2018-08-22T16:24:30.924Z,95060.70
2018-08-22T16:26:59.631Z,95063.22
2018-08-22T16:29:28.771Z,95065.44
2018-08-22T16:31:58.695Z,95069.02
2018-08-22T16:34:27.661Z,95067.50
2018-08-22T16:36:56.584Z,95073.83
2018-08-22T16:39:39.197Z,95071.59
2018-08-22T16:42:09.172Z,95080.73
2018-08-22T16:44:38.362Z,95073.89
2018-08-22T16:47:07.323Z,95075.70
2018-08-22T16:49:36.374Z,95077.66
2018-08-22T16:52:05.786Z,95071.96
2018-08-22T16:54:34.576Z,95070.22
2018-08-22T16:57:03.368Z,95075.58
2018-08-22T16:59:32.130Z,95075.99
2018-08-22T17:02:01.414Z,95088.95
2018-08-22T17:04:30.131Z,95084.09
2018-08-22T17:07:04.391Z,95090.75
2018-08-22T17:09:33.366Z,95101.45
2018-08-22T17:12:02.325Z,95098.74
2018-08-22T17:14:31.723Z,95093.09
2018-08-22T17:17:00.724Z,95088.88
2018-08-22T17:19:29.751Z,95107.44
2018-08-22T17:21:58.770Z,95100.52
2018-08-22T17:24:28.671Z,95092.52
2018-08-22T17:26:58.141Z,95098.25
2018-08-22T17:29:27.802Z,95105.48
2018-08-22T17:32:04.480Z,95103.87
2018-08-22T17:34:33.955Z,95110.44
2018-08-22T17:37:08.167Z,95109.58
2018-08-22T17:39:37.564Z,95115.52
2018-08-22T17:42:06.350Z,95124.43
2018-08-22T17:44:35.372Z,95127.24
2018-08-22T17:47:04.686Z,95129.83
2018-08-22T17:49:33.451Z,95134.43
2018-08-22T17:52:06.042Z,95141.82
2018-08-22T17:54:35.009Z,95139.64
2018-08-22T17:57:23.598Z,95144.77
2018-08-22T17:59:52.583Z,95148.77
2018-08-22T18:02:21.460Z,95151.69
2018-08-22T18:05:00.410Z,95153.70
2018-08-22T18:07:29.050Z,95151.33
2018-08-22T18:09:58.125Z,95156.91
2018-08-22T18:12:28.518Z,95161.27
2018-08-22T18:14:58.505Z,95161.09
2018-08-22T18:17:27.617Z,95164.73
2018-08-22T18:19:57.875Z,95172.33
2018-08-22T18:22:30.200Z,95173.80
2018-08-22T18:24:59.735Z,95163.04
2018-08-22T18:28:57.911Z,95168.83
2018-08-22T18:31:27.091Z,95169.56
2018-08-22T18:34:01.082Z,95171.42
2018-08-22T18:36:31.005Z,95173.00
2018-08-22T18:39:13.368Z,95179.20
2018-08-22T18:41:42.369Z,95182.77
2018-08-22T18:44:12.223Z,95183.20
2018-08-22T18:46:41.315Z,95179.74
2018-08-22T18:49:10.391Z,95181.50
2018-08-22T18:51:39.657Z,95174.02
2018-08-22T18:54:08.494Z,95181.31
2018-08-22T18:56:37.767Z,95183.91
2018-08-22T18:59:17.578Z,95186.20
2018-08-22T19:01:46.811Z,95188.53
2018-08-22T19:04:15.875Z,95188.88
2018-08-22T19:06:45.392Z,95192.88
2018-08-22T19:09:15.032Z,95191.98
2018-08-22T19:11:43.900Z,95189.13
2018-08-22T19:14:12.920Z,95180.84
2018-08-22T19:16:42.332Z,95181.54
2018-08-22T19:19:11.297Z,95180.48
2018-08-22T19:21:40.210Z,95182.33
2018-08-22T19:24:09.236Z,95182.92
2018-08-22T19:26:38.827Z,95185.12
2018-08-22T19:29:08.515Z,95182.44
2018-08-22T19:31:43.246Z,95178.92
2018-08-22T19:34:12.371Z,95179.38
2018-08-22T19:36:41.952Z,95185.97
2018-08-22T19:39:11.007Z,95181.66
2018-08-22T19:41:40.152Z,95188.77
2018-08-22T19:44:08.948Z,95179.15
2018-08-22T19:46:38.209Z,95182.86
2018-08-22T19:49:07.817Z,95180.89
2018-08-22T19:51:36.828Z,95184.80
2018-08-22T19:54:08.456Z,95179.11
2018-08-22T19:56:37.690Z,95181.27
2018-08-22T19:59:06.724Z,95181.16
2018-08-22T20:01:38.155Z,95178.47
2018-08-22T20:04:07.023Z,95178.47
2018-08-22T20:06:37.523Z,95175.22
2018-08-22T20:09:07.315Z,95174.00
2018-08-22T20:11:36.263Z,95172.55
2018-08-22T20:14:06.473Z,95175.88
2018-08-22T20:16:35.440Z,95175.13
2018-08-22T20:19:05.446Z,95167.02
2018-08-22T20:21:36.365Z,95167.77
2018-08-22T20:24:07.066Z,95172.54
2018-08-22T20:26:36.659Z,95168.34
2018-08-22T20:29:06.638Z,95166.41
2018-08-22T20:31:36.499Z,95169.45
2018-08-22T20:34:12.847Z,95167.21
2018-08-22T20:36:46.689Z,95161.42
2018-08-22T20:39:15.813Z,95164.91
2018-08-22T20:41:45.419Z,95166.98
2018-08-22T20:44:17.635Z,95165.39
2018-08-22T20:46:47.498Z,95174.45
2018-08-22T20:49:18.161Z,95171.76
2018-08-22T20:51:47.548Z,95173.27
2018-08-22T20:54:24.314Z,95173.50
2018-08-22T20:56:58.270Z,95176.02
2018-08-22T20:59:28.087Z,95180.66
2018-08-22T21:02:02.170Z,95178.72
2018-08-22T21:04:31.020Z,95192.39
2018-08-22T21:07:00.735Z,95187.12
2018-08-22T21:09:29.639Z,95183.89
2018-08-22T21:11:59.623Z,95194.37
2018-08-22T21:14:30.142Z,95189.63
2018-08-22T21:17:00.413Z,95184.16
2018-08-22T21:19:29.435Z,95188.78
2018-08-22T21:21:58.700Z,95186.72
2018-08-22T21:24:28.013Z,95185.97
2018-08-22T21:26:57.300Z,95188.53
2018-08-22T21:29:26.371Z,95191.02
2018-08-22T21:31:55.536Z,95189.94
2018-08-22T21:34:24.551Z,95202.06
2018-08-22T21:36:53.997Z,95204.97
2018-08-22T21:39:27.162Z,95197.68
2018-08-22T21:41:57.233Z,95205.13
2018-08-22T21:44:26.056Z,95191.86
2018-08-22T21:47:00.631Z,95199.09
2018-08-22T21:49:30.194Z,95202.73
2018-08-22T21:52:02.821Z,95211.61
2018-08-22T21:54:32.279Z,95217.95
2018-08-22T21:57:01.599Z,95207.63
2018-08-22T21:59:30.350Z,95208.91
2018-08-22T22:02:04.479Z,95209.75
2018-08-22T22:04:34.950Z,95220.97
2018-08-22T22:07:04.970Z,95215.48
2018-08-22T22:09:34.534Z,95215.34
2018-08-22T22:12:04.103Z,95222.66
2018-08-22T22:14:34.964Z,95206.83
2018-08-22T22:17:05.143Z,95214.80
2018-08-22T22:19:35.177Z,95216.92
2018-08-22T22:22:05.013Z,95222.95
2018-08-22T22:24:39.439Z,95224.03
2018-08-22T22:27:09.230Z,95221.64
2018-08-22T22:29:38.214Z,95230.78
2018-08-22T22:32:07.559Z,95219.91
2018-08-22T22:34:36.881Z,95217.44
2018-08-22T22:37:06.547Z,95214.44
2018-08-22T22:39:45.480Z,95223.67
2018-08-22T22:42:19.423Z,95223.67
2018-08-22T22:44:50.056Z,95222.53
2018-08-22T22:47:24.252Z,95211.81
2018-08-22T22:49:53.338Z,95226.27
2018-08-22T22:52:44.134Z,95222.16
2018-08-22T22:55:13.811Z,95226.36
2018-08-22T22:57:44.106Z,95230.17
2018-08-22T23:00:17.376Z,95227.02
2018-08-22T23:02:50.572Z,95228.59
2018-08-22T23:05:19.462Z,95228.86
2018-08-22T23:07:48.847Z,95221.79
2018-08-22T23:10:17.516Z,95216.73
2018-08-22T23:12:48.182Z,95219.09
2018-08-22T23:15:23.819Z,95208.17
2018-08-22T23:17:54.632Z,95205.47
2018-08-22T23:20:29.467Z,95197.03
2018-08-22T23:22:58.318Z,95209.17
2018-08-22T23:25:27.607Z,95209.23
2018-08-22T23:27:56.998Z,95207.98
2018-08-22T23:30:36.180Z,95207.11
2018-08-22T23:33:06.318Z,95207.29
2018-08-22T23:35:36.089Z,95212.42
2018-08-22T23:38:06.537Z,95212.70
2018-08-22T23:40:36.904Z,95213.63
2018-08-22T23:43:05.592Z,95205.69
2018-08-22T23:45:37.258Z,95205.20
2018-08-22T23:48:06.949Z,95210.96
2018-08-22T23:50:44.906Z,95207.29
2018-08-22T23:53:13.824Z,95204.31
2018-08-22T23:55:42.455Z,95211.39
2018-08-22T23:58:11.488Z,95213.94
